Welcome to Des Moines Iowa Weather. I am an independent private personal weather station on the Northwest Side of Des Moines, Iowa. Just East of Windsor Heights and just West of Glendale . This site is also mobile friendly.

There are no active watches, warnings or advisories


Visit our other weather sites:

Historical Data

Weather Station Setup



Weather Underground History page Text

Daily Summary for January 16, 2018 Units:  Both    English   Metric
« Previous Day
Next Day »
Daily Weekly Monthly Yearly Custom
  High: Low: Average:
Temperature: 6.1 °F /  -14.4 °C -6.0 °F /  -21.1 °C -0.1 °F /  -17.8 °C
Dew Point: 0.0 °F /  -17.8 °C -12.0 °F /  -24.4 °C -4.9 °F /  -20.5 °C
Humidity: 86 % 74 % 80 %
Wind Speed: 10.0 mph /  16.1 km/h - 2.8 mph /  4.5 km/h
Wind Gust: 16.0 mph /  25.7 km/h - -
Wind:- - WNW
Pressure: 30.84 in /  1044.2 hPa 30.71 in /  1039.8 hPa -
Precipitation: 0.00 in /  0 mm    
Historical Graphs
 
 
Tabular Data for January 16, 2018
Time Temperature Dew Point Pressure Wind Wind Speed Wind Gust Humidity Rainfall Rate (Hourly)
00:10 -5.5 °F /  -20.8 °C -12.0 °F /  -24.4 °C 30.71 in /  1039.8 hPa WNW 3.0 mph /  4.8 km/h 16.0 mph /  25.7 km/h 75 % 0.00 in /  0 mm
00:25 -5.6 °F /  -20.9 °C -12.0 °F /  -24.4 °C 30.72 in /  1040.2 hPa NW 10.0 mph /  16.1 km/h 13.0 mph /  20.9 km/h 75 % 0.00 in /  0 mm
00:40 -5.7 °F /  -20.9 °C -11.0 °F /  -23.9 °C 30.71 in /  1039.8 hPa NNW 5.0 mph /  8 km/h 10.0 mph /  16.1 km/h 76 % 0.00 in /  0 mm
00:55 -5.8 °F /  -21 °C -12.0 °F /  -24.4 °C 30.72 in /  1040.2 hPa NW 3.0 mph /  4.8 km/h 12.0 mph /  19.3 km/h 76 % 0.00 in /  0 mm
01:10 -5.9 °F /  -21.1 °C -12.0 °F /  -24.4 °C 30.71 in /  1039.8 hPa North 4.0 mph /  6.4 km/h 11.0 mph /  17.7 km/h 76 % 0.00 in /  0 mm
01:25 -5.9 °F /  -21.1 °C -12.0 °F /  -24.4 °C 30.72 in /  1040.2 hPa North 3.0 mph /  4.8 km/h 9.0 mph /  14.5 km/h 76 % 0.00 in /  0 mm
01:40 -6.0 °F /  -21.1 °C -11.0 °F /  -23.9 °C 30.72 in /  1040.2 hPa North 6.0 mph /  9.7 km/h 9.0 mph /  14.5 km/h 77 % 0.00 in /  0 mm
01:55 -6.0 °F /  -21.1 °C -11.0 °F /  -23.9 °C 30.72 in /  1040.2 hPa NW 7.0 mph /  11.3 km/h 11.0 mph /  17.7 km/h 77 % 0.00 in /  0 mm
02:10 -6.0 °F /  -21.1 °C -11.0 °F /  -23.9 °C 30.73 in /  1040.5 hPa NW 3.0 mph /  4.8 km/h 9.0 mph /  14.5 km/h 78 % 0.00 in /  0 mm
02:26 -6.0 °F /  -21.1 °C -11.0 °F /  -23.9 °C 30.73 in /  1040.5 hPa NW 1.0 mph /  1.6 km/h 9.0 mph /  14.5 km/h 78 % 0.00 in /  0 mm
02:41 -6.0 °F /  -21.1 °C -11.0 °F /  -23.9 °C 30.73 in /  1040.5 hPa NW 6.0 mph /  9.7 km/h 9.0 mph /  14.5 km/h 78 % 0.00 in /  0 mm
02:56 -5.9 °F /  -21.1 °C -11.0 °F /  -23.9 °C 30.73 in /  1040.5 hPa NNW 9.0 mph /  14.5 km/h 11.0 mph /  17.7 km/h 78 % 0.00 in /  0 mm
03:11 -5.8 °F /  -21 °C -11.0 °F /  -23.9 °C 30.74 in /  1040.9 hPa NW 5.0 mph /  8 km/h 12.0 mph /  19.3 km/h 78 % 0.00 in /  0 mm
03:26 -5.2 °F /  -20.7 °C -10.0 °F /  -23.3 °C 30.74 in /  1040.9 hPa NNW 8.0 mph /  12.9 km/h 10.0 mph /  16.1 km/h 78 % 0.00 in /  0 mm
03:41 -4.5 °F /  -20.3 °C -9.0 °F /  -22.8 °C 30.74 in /  1040.9 hPa NW 4.0 mph /  6.4 km/h 11.0 mph /  17.7 km/h 79 % 0.00 in /  0 mm
03:56 -4.1 °F /  -20.1 °C -9.0 °F /  -22.8 °C 30.75 in /  1041.2 hPa NW 3.0 mph /  4.8 km/h 10.0 mph /  16.1 km/h 79 % 0.00 in /  0 mm
04:11 -3.7 °F /  -19.8 °C -9.0 °F /  -22.8 °C 30.74 in /  1040.9 hPa NW 6.0 mph /  9.7 km/h 10.0 mph /  16.1 km/h 79 % 0.00 in /  0 mm
04:26 -3.5 °F /  -19.7 °C -9.0 °F /  -22.8 °C 30.75 in /  1041.2 hPa WNW 5.0 mph /  8 km/h 14.0 mph /  22.5 km/h 79 % 0.00 in /  0 mm
04:42 -3.9 °F /  -19.9 °C -9.0 °F /  -22.8 °C 30.75 in /  1041.2 hPa NW 6.0 mph /  9.7 km/h 12.0 mph /  19.3 km/h 78 % 0.00 in /  0 mm
04:56 -4.2 °F /  -20.1 °C -9.0 °F /  -22.8 °C 30.76 in /  1041.5 hPa WNW 1.0 mph /  1.6 km/h 15.0 mph /  24.1 km/h 78 % 0.00 in /  0 mm
05:12 -4.3 °F /  -20.2 °C -10.0 °F /  -23.3 °C 30.76 in /  1041.5 hPa NW 4.0 mph /  6.4 km/h 13.0 mph /  20.9 km/h 78 % 0.00 in /  0 mm
05:27 -4.4 °F /  -20.2 °C -9.0 °F /  -22.8 °C 30.76 in /  1041.5 hPa WNW 2.0 mph /  3.2 km/h 11.0 mph /  17.7 km/h 79 % 0.00 in /  0 mm
05:42 -4.3 °F /  -20.2 °C -9.0 °F /  -22.8 °C 30.77 in /  1041.9 hPa NW 2.0 mph /  3.2 km/h 10.0 mph /  16.1 km/h 79 % 0.00 in /  0 mm
05:57 -4.3 °F /  -20.2 °C -9.0 °F /  -22.8 °C 30.77 in /  1041.9 hPa NW 2.0 mph /  3.2 km/h 12.0 mph /  19.3 km/h 81 % 0.00 in /  0 mm
06:27 -4.1 °F /  -20.1 °C -8.0 °F /  -22.2 °C 30.78 in /  1042.2 hPa WNW 5.0 mph /  8 km/h 10.0 mph /  16.1 km/h 82 % 0.00 in /  0 mm
06:42 -4.1 °F /  -20.1 °C -8.0 °F /  -22.2 °C 30.77 in /  1041.9 hPa WNW 4.0 mph /  6.4 km/h 9.0 mph /  14.5 km/h 82 % 0.00 in /  0 mm
06:57 -4.1 °F /  -20.1 °C -8.0 °F /  -22.2 °C 30.77 in /  1041.9 hPa WNW 4.0 mph /  6.4 km/h 9.0 mph /  14.5 km/h 82 % 0.00 in /  0 mm
07:12 -4.3 °F /  -20.2 °C -8.0 °F /  -22.2 °C 30.77 in /  1041.9 hPa NW 3.0 mph /  4.8 km/h 10.0 mph /  16.1 km/h 82 % 0.00 in /  0 mm
07:27 -4.0 °F /  -20 °C -8.0 °F /  -22.2 °C 30.78 in /  1042.2 hPa WNW 5.0 mph /  8 km/h 11.0 mph /  17.7 km/h 82 % 0.00 in /  0 mm
07:42 -3.4 °F /  -19.7 °C -8.0 °F /  -22.2 °C 30.78 in /  1042.2 hPa North 6.0 mph /  9.7 km/h 12.0 mph /  19.3 km/h 82 % 0.00 in /  0 mm
07:57 -3.0 °F /  -19.4 °C -7.0 °F /  -21.7 °C 30.79 in /  1042.5 hPa NW 4.0 mph /  6.4 km/h 14.0 mph /  22.5 km/h 82 % 0.00 in /  0 mm
08:12 -2.9 °F /  -19.4 °C -7.0 °F /  -21.7 °C 30.79 in /  1042.5 hPa NW 5.0 mph /  8 km/h 12.0 mph /  19.3 km/h 81 % 0.00 in /  0 mm
08:27 -2.8 °F /  -19.3 °C -7.0 °F /  -21.7 °C 30.80 in /  1042.9 hPa North 3.0 mph /  4.8 km/h 10.0 mph /  16.1 km/h 81 % 0.00 in /  0 mm
08:42 -2.7 °F /  -19.3 °C -7.0 °F /  -21.7 °C 30.80 in /  1042.9 hPa NW 1.0 mph /  1.6 km/h 11.0 mph /  17.7 km/h 81 % 0.00 in /  0 mm
08:58 -2.4 °F /  -19.1 °C -7.0 °F /  -21.7 °C 30.81 in /  1043.2 hPa WNW 3.0 mph /  4.8 km/h 9.0 mph /  14.5 km/h 81 % 0.00 in /  0 mm
09:13 -1.9 °F /  -18.8 °C -6.0 °F /  -21.1 °C 30.82 in /  1043.6 hPa North 2.0 mph /  3.2 km/h 12.0 mph /  19.3 km/h 81 % 0.00 in /  0 mm
09:28 -1.5 °F /  -18.6 °C -6.0 °F /  -21.1 °C 30.82 in /  1043.6 hPa WNW 2.0 mph /  3.2 km/h 10.0 mph /  16.1 km/h 81 % 0.00 in /  0 mm
09:43 -0.9 °F /  -18.3 °C -5.0 °F /  -20.6 °C 30.83 in /  1043.9 hPa NW 7.0 mph /  11.3 km/h 10.0 mph /  16.1 km/h 82 % 0.00 in /  0 mm
09:58 -0.2 °F /  -17.9 °C -4.0 °F /  -20 °C 30.83 in /  1043.9 hPa NW 6.0 mph /  9.7 km/h 11.0 mph /  17.7 km/h 83 % 0.00 in /  0 mm
10:13 0.5 °F /  -17.5 °C -4.0 °F /  -20 °C 30.83 in /  1043.9 hPa NW 5.0 mph /  8 km/h 8.0 mph /  12.9 km/h 83 % 0.00 in /  0 mm
10:28 0.8 °F /  -17.3 °C -4.0 °F /  -20 °C 30.83 in /  1043.9 hPa NW 2.0 mph /  3.2 km/h 13.0 mph /  20.9 km/h 81 % 0.00 in /  0 mm
10:43 1.8 °F /  -16.8 °C -3.0 °F /  -19.4 °C 30.84 in /  1044.2 hPa NW 4.0 mph /  6.4 km/h 10.0 mph /  16.1 km/h 79 % 0.00 in /  0 mm
10:58 2.3 °F /  -16.5 °C -3.0 °F /  -19.4 °C 30.83 in /  1043.9 hPa North 3.0 mph /  4.8 km/h 11.0 mph /  17.7 km/h 77 % 0.00 in /  0 mm
11:13 3.0 °F /  -16.1 °C -3.0 °F /  -19.4 °C 30.83 in /  1043.9 hPa NW 2.0 mph /  3.2 km/h 11.0 mph /  17.7 km/h 77 % 0.00 in /  0 mm
11:28 2.9 °F /  -16.2 °C -3.0 °F /  -19.4 °C 30.82 in /  1043.6 hPa WNW 2.0 mph /  3.2 km/h 9.0 mph /  14.5 km/h 76 % 0.00 in /  0 mm
11:43 3.7 °F /  -15.7 °C -2.0 °F /  -18.9 °C 30.82 in /  1043.6 hPa WNW 2.0 mph /  3.2 km/h 10.0 mph /  16.1 km/h 76 % 0.00 in /  0 mm
11:58 4.4 °F /  -15.3 °C -2.0 °F /  -18.9 °C 30.81 in /  1043.2 hPa NW 4.0 mph /  6.4 km/h 8.0 mph /  12.9 km/h 76 % 0.00 in /  0 mm
12:14 5.5 °F /  -14.7 °C -1.0 °F /  -18.3 °C 30.80 in /  1042.9 hPa NW 4.0 mph /  6.4 km/h 8.0 mph /  12.9 km/h 76 % 0.00 in /  0 mm
12:29 5.4 °F /  -14.8 °C -1.0 °F /  -18.3 °C 30.80 in /  1042.9 hPa NW 3.0 mph /  4.8 km/h 9.0 mph /  14.5 km/h 74 % 0.00 in /  0 mm
12:44 6.0 °F /  -14.4 °C 0.0 °F /  -17.8 °C 30.79 in /  1042.5 hPa NW 3.0 mph /  4.8 km/h 6.0 mph /  9.7 km/h 75 % 0.00 in /  0 mm
12:59 6.1 °F /  -14.4 °C 0.0 °F /  -17.8 °C 30.79 in /  1042.5 hPa North 1.0 mph /  1.6 km/h 9.0 mph /  14.5 km/h 75 % 0.00 in /  0 mm
13:14 6.0 °F /  -14.4 °C 0.0 °F /  -17.8 °C 30.79 in /  1042.5 hPa SW 3.0 mph /  4.8 km/h 10.0 mph /  16.1 km/h 75 % 0.00 in /  0 mm
13:29 6.0 °F /  -14.4 °C 0.0 °F /  -17.8 °C 30.79 in /  1042.5 hPa North 3.0 mph /  4.8 km/h 10.0 mph /  16.1 km/h 76 % 0.00 in /  0 mm
13:44 5.5 °F /  -14.7 °C 0.0 °F /  -17.8 °C 30.79 in /  1042.5 hPa North 5.0 mph /  8 km/h 15.0 mph /  24.1 km/h 77 % 0.00 in /  0 mm
13:59 5.8 °F /  -14.6 °C 0.0 °F /  -17.8 °C 30.79 in /  1042.5 hPa NW 5.0 mph /  8 km/h 12.0 mph /  19.3 km/h 78 % 0.00 in /  0 mm
14:14 5.5 °F /  -14.7 °C 0.0 °F /  -17.8 °C 30.79 in /  1042.5 hPa NW 5.0 mph /  8 km/h 11.0 mph /  17.7 km/h 79 % 0.00 in /  0 mm
14:29 5.4 °F /  -14.8 °C 0.0 °F /  -17.8 °C 30.79 in /  1042.5 hPa NW 3.0 mph /  4.8 km/h 12.0 mph /  19.3 km/h 78 % 0.00 in /  0 mm
14:44 5.5 °F /  -14.7 °C 0.0 °F /  -17.8 °C 30.79 in /  1042.5 hPa West 2.0 mph /  3.2 km/h 8.0 mph /  12.9 km/h 78 % 0.00 in /  0 mm
14:59 5.3 °F /  -14.8 °C 0.0 °F /  -17.8 °C 30.79 in /  1042.5 hPa NW 5.0 mph /  8 km/h 10.0 mph /  16.1 km/h 78 % 0.00 in /  0 mm
15:14 5.4 °F /  -14.8 °C 0.0 °F /  -17.8 °C 30.79 in /  1042.5 hPa NW 2.0 mph /  3.2 km/h 7.0 mph /  11.3 km/h 78 % 0.00 in /  0 mm
15:29 5.4 °F /  -14.8 °C 0.0 °F /  -17.8 °C 30.79 in /  1042.5 hPa NW 2.0 mph /  3.2 km/h 10.0 mph /  16.1 km/h 78 % 0.00 in /  0 mm
15:45 4.9 °F /  -15.1 °C -1.0 °F /  -18.3 °C 30.79 in /  1042.5 hPa NW 3.0 mph /  4.8 km/h 12.0 mph /  19.3 km/h 78 % 0.00 in /  0 mm
16:00 4.9 °F /  -15.1 °C 0.0 °F /  -17.8 °C 30.79 in /  1042.5 hPa NW 1.0 mph /  1.6 km/h 7.0 mph /  11.3 km/h 79 % 0.00 in /  0 mm
16:15 5.0 °F /  -15 °C 0.0 °F /  -17.8 °C 30.79 in /  1042.5 hPa NW 8.0 mph /  12.9 km/h 8.0 mph /  12.9 km/h 79 % 0.00 in /  0 mm
16:30 4.8 °F /  -15.1 °C 0.0 °F /  -17.8 °C 30.79 in /  1042.5 hPa WNW 2.0 mph /  3.2 km/h 8.0 mph /  12.9 km/h 79 % 0.00 in /  0 mm
16:45 4.6 °F /  -15.2 °C 0.0 °F /  -17.8 °C 30.79 in /  1042.5 hPa NW 3.0 mph /  4.8 km/h 9.0 mph /  14.5 km/h 80 % 0.00 in /  0 mm
17:00 4.2 °F /  -15.4 °C -1.0 °F /  -18.3 °C 30.79 in /  1042.5 hPa NW 1.0 mph /  1.6 km/h 4.0 mph /  6.4 km/h 80 % 0.00 in /  0 mm
17:15 3.8 °F /  -15.7 °C -1.0 °F /  -18.3 °C 30.79 in /  1042.5 hPa NW 2.0 mph /  3.2 km/h 8.0 mph /  12.9 km/h 80 % 0.00 in /  0 mm
17:30 3.5 °F /  -15.8 °C -1.0 °F /  -18.3 °C 30.79 in /  1042.5 hPa NW 2.0 mph /  3.2 km/h 3.0 mph /  4.8 km/h 80 % 0.00 in /  0 mm
17:45 3.2 °F /  -16 °C -1.0 °F /  -18.3 °C 30.79 in /  1042.5 hPa NW 1.0 mph /  1.6 km/h 3.0 mph /  4.8 km/h 81 % 0.00 in /  0 mm
18:00 2.9 °F /  -16.2 °C -2.0 °F /  -18.9 °C 30.79 in /  1042.5 hPa Calm   4.0 mph /  6.4 km/h 81 % 0.00 in /  0 mm
18:15 2.6 °F /  -16.3 °C -2.0 °F /  -18.9 °C 30.79 in /  1042.5 hPa Calm   3.0 mph /  4.8 km/h 81 % 0.00 in /  0 mm
18:30 2.3 °F /  -16.5 °C -2.0 °F /  -18.9 °C 30.79 in /  1042.5 hPa Calm   1.0 mph /  1.6 km/h 82 % 0.00 in /  0 mm
18:45 2.0 °F /  -16.7 °C -2.0 °F /  -18.9 °C 30.79 in /  1042.5 hPa Calm   2.0 mph /  3.2 km/h 82 % 0.00 in /  0 mm
19:01 1.8 °F /  -16.8 °C -3.0 °F /  -19.4 °C 30.78 in /  1042.2 hPa Calm     82 % 0.00 in /  0 mm
19:16 1.5 °F /  -16.9 °C -3.0 °F /  -19.4 °C 30.79 in /  1042.5 hPa Calm   1.0 mph /  1.6 km/h 83 % 0.00 in /  0 mm
19:31 1.2 °F /  -17.1 °C -3.0 °F /  -19.4 °C 30.79 in /  1042.5 hPa Calm     83 % 0.00 in /  0 mm
19:46 1.0 °F /  -17.2 °C -3.0 °F /  -19.4 °C 30.78 in /  1042.2 hPa Calm     83 % 0.00 in /  0 mm
20:01 0.7 °F /  -17.4 °C -3.0 °F /  -19.4 °C 30.77 in /  1041.9 hPa Calm     83 % 0.00 in /  0 mm
20:16 0.4 °F /  -17.6 °C -4.0 °F /  -20 °C 30.77 in /  1041.9 hPa Calm     83 % 0.00 in /  0 mm
20:31 0.2 °F /  -17.7 °C -4.0 °F /  -20 °C 30.77 in /  1041.9 hPa Calm     84 % 0.00 in /  0 mm
20:46 0.1 °F /  -17.7 °C -4.0 °F /  -20 °C 30.77 in /  1041.9 hPa Calm     84 % 0.00 in /  0 mm
21:01 0.1 °F /  -17.7 °C -3.0 °F /  -19.4 °C 30.77 in /  1041.9 hPa Calm     85 % 0.00 in /  0 mm
21:16 0.2 °F /  -17.7 °C -3.0 °F /  -19.4 °C 30.77 in /  1041.9 hPa Calm     85 % 0.00 in /  0 mm
21:31 0.2 °F /  -17.7 °C -3.0 °F /  -19.4 °C 30.77 in /  1041.9 hPa Calm   2.0 mph /  3.2 km/h 85 % 0.00 in /  0 mm
21:46 0.4 °F /  -17.6 °C -3.0 °F /  -19.4 °C 30.76 in /  1041.5 hPa Calm     85 % 0.00 in /  0 mm
22:01 0.4 °F /  -17.6 °C -3.0 °F /  -19.4 °C 30.76 in /  1041.5 hPa Calm     85 % 0.00 in /  0 mm
22:17 0.4 °F /  -17.6 °C -3.0 °F /  -19.4 °C 30.75 in /  1041.2 hPa Calm     86 % 0.00 in /  0 mm
22:32 0.2 °F /  -17.7 °C -3.0 °F /  -19.4 °C 30.75 in /  1041.2 hPa Calm     85 % 0.00 in /  0 mm
22:47 0.0 °F /  -17.8 °C -3.0 °F /  -19.4 °C 30.75 in /  1041.2 hPa Calm     85 % 0.00 in /  0 mm
23:02 -0.3 °F /  -17.9 °C -4.0 °F /  -20 °C 30.75 in /  1041.2 hPa Calm     85 % 0.00 in /  0 mm
23:17 -0.5 °F /  -18.1 °C -4.0 °F /  -20 °C 30.75 in /  1041.2 hPa Calm     85 % 0.00 in /  0 mm
23:32 -0.6 °F /  -18.1 °C -4.0 °F /  -20 °C 30.74 in /  1040.9 hPa Calm     85 % 0.00 in /  0 mm
23:47 -0.7 °F /  -18.2 °C -4.0 °F /  -20 °C 30.74 in /  1040.9 hPa Calm     85 % 0.00 in /  0 mm
Des Moines Weather and Climate
Compliments of Weather Underground - 3 mb

Script developed by  Jim McMurry - jmcmurry@mwt.net Adapted for the template by  Wim van der Kuil - Leuven-Template.eu

You find our weather info also at:

Weather Underground

Equipment we use:

Weather-station
Davis VP2 Plus

Weather-program
Davis Weatherlink.Com

Weather-server
iMac (Retina 4K, 21.5-inch, Late 2015)

Provider
Hostmonster.com

Davis VP2 Plus

Davis Weatherlink.Com

iMac (Retina 4K, 21.5-inch, Late 2015)

Hostmonster.com